Portada
METAR-TAF:

METAR-TAF

Aeroports :

Inverness, Escòcia

latitud: 57-32N, longitud: 004-03W, altitud: 9 m

Observació

L'informe es va fer fa 18 minuts, a les 05:50 UTC
Vent 1 kt amb direcció variable
Temperatura 10°C
Humitat 93%
Pressió 994 hPa
Visibilitat 10 km o més
Núvols disperses a una alçada de 4000 ft
pluja

METAR: EGPE 200550Z VRB01KT 9999 RA SCT040 10/09 Q0994

Hora: 07:08 (06:08 UTC)

Pronòstic

L'informe es va fer fa 1 hora i 4 minuts, a les 05:04 UTC
Pronòstic vàlid del 20 a les 06 UTC al 20 a les 15 UTC
Vent 3 kt amb direcció variable
Visibilitat 10 km o més
Escasses núvols a una alçada de 3500 ft
Temporalment
l' 20 a les 06 UTC al 20 a les 12 UTC
Visibilitat: 8000 m
pluja
Probabilitat 30% :
Temporalment
l' 20 a les 06 UTC al 20 a les 12 UTC
Visibilitat: 3000 m
Cel ennuvolat a una alçada de 400 ft
pluja, plugim, Boira superficial

TAF: EGPE 200504Z 2006/2015 VRB03KT 9999 FEW035 TEMPO 2006/2012 8000 -RA PROB30 TEMPO 2006/2012 3000 RADZ MIFG BKN004

Observacions i pronòstics meteorològics de més de 4000 aeroports (METAR i TAF).

Les estacions disponibles són els punts grocs i vermells al mapa.

Posi el ratolí al punt desitjat per veure el nom de l'estació.

Feu clic per veure les observacions i els pronòstics meteorològics.

Per canviar el mapa: feu clic els botons verds amb una creu de color negre per apropar; al botó verd amb un guió per allunyar la imatge; o en les fletxes verdes per a mapes adjacents.


METAR-TAF: